.
WxDataArchive / Data Records for 2013-10-16
2013-10-15 October 2013 2013-10-17

Data Records for Wednesday, 16 October 2013

Time	Temp	Chill	HIndex	Humid	Dewpt	 Wind 	HiWind	WindDir	Rain 	Barom 
-----	----	-----	------	-----	-----	------	------	-------	-----	----- 
00:00	63.2	63.2	63.2	92	60.8	0	2	270	0.00	29.862 
00:05	63.2	63.2	63.2	92	60.8	0	1	270	0.00	29.862 
00:10	63.2	63.2	63.2	92	60.8	0	3	270	0.00	29.862 
00:15	63.2	63.2	63.2	92	60.8	0	3	270	0.00	29.856 
00:20	63.2	63.2	63.2	91	60.5	0	1	270	0.00	29.856 
00:25	63.2	63.2	63.2	91	60.5	0	1	270	0.00	29.856 
00:30	63.2	63.2	63.2	91	60.5	0	2	270	0.00	29.846 
00:35	63.2	63.2	63.2	91	60.5	0	2	270	0.00	29.846 
00:40	63.2	63.2	63.2	91	60.5	0	2	270	0.00	29.846 
00:45	63.2	63.2	63.2	91	60.5	0	1	270	0.00	29.854 
00:50	63.2	63.2	63.2	90	60.2	0	4	270	0.00	29.854 
00:55	63.2	63.2	63.2	90	60.2	0	2	270	0.00	29.854 
01:00	63.1	63.1	63.1	90	60.1	0	1	270	0.00	29.846 
01:05	63.1	63.1	63.1	90	60.1	0	2	270	0.00	29.846 
01:10	63.1	63.1	63.1	90	60.1	0	2	270	0.00	29.846 
01:15	63.1	63.1	63.1	90	60.1	0	2	270	0.00	29.846 
01:20	63.1	63.1	63.1	90	60.1	0	1	270	0.00	29.846 
01:25	63.1	63.1	63.1	90	60.1	0	2	270	0.00	29.846 
01:30	62.9	62.9	62.9	90	59.9	0	1	270	0.00	29.842 
01:35	62.9	62.9	62.9	90	59.9	0	2	270	0.00	29.842 
01:40	62.9	62.9	62.9	90	59.9	0	2	270	0.00	29.842 
01:45	62.9	62.9	62.9	90	59.9	0	2	270	0.00	29.842 
01:50	62.7	62.7	62.7	90	59.7	0	1	270	0.00	29.842 
01:55	62.7	62.7	62.7	91	60.0	0	2	292	0.00	29.842 
02:00	62.6	62.6	62.6	91	59.9	0	1	292	0.00	29.841 
02:05	62.4	62.4	62.4	91	59.7	0	1	292	0.00	29.841 
02:10	62.4	62.4	62.4	91	59.7	0	1	292	0.00	29.841 
02:15	62.3	62.3	62.3	91	59.6	0	1	292	0.00	29.840 
02:20	62.3	62.3	62.3	91	59.6	0	1	292	0.00	29.840 
02:25	62.1	62.1	62.1	91	59.4	0	1	292	0.00	29.840 
02:30	62.1	62.1	62.1	91	59.4	0	3	292	0.00	29.841 
02:35	62.1	62.1	62.1	91	59.4	0	2	292	0.00	29.841 
02:40	62.1	62.1	62.1	90	59.1	0	3	248	0.00	29.841 
02:45	62.1	62.1	62.1	90	59.1	0	1	248	0.00	29.833 
02:50	62.1	62.1	62.1	89	58.8	0	2	315	0.00	29.833 
02:55	62.1	62.1	62.1	89	58.8	0	2	315	0.00	29.833 
03:00	62.1	62.1	62.1	89	58.8	0	1	315	0.00	29.842 
03:05	62.1	62.1	62.1	89	58.8	0	2	315	0.00	29.842 
03:10	62.0	62.0	62.0	89	58.7	0	2	315	0.00	29.842 
03:15	62.0	62.0	62.0	88	58.4	0	2	315	0.00	29.840 
03:20	61.8	61.8	61.8	88	58.2	0	2	315	0.00	29.840 
03:25	61.8	61.8	61.8	88	58.2	0	3	315	0.00	29.840 
03:30	61.8	61.8	61.8	88	58.2	0	1	292	0.00	29.827 
03:35	61.6	61.6	61.6	88	58.0	0	2	292	0.00	29.827 
03:40	61.6	61.6	61.6	87	57.7	1	5	292	0.00	29.827 
03:45	61.5	61.5	61.5	87	57.6	0	5	292	0.00	29.825 
03:50	61.3	61.3	61.3	87	57.4	0	1	292	0.00	29.825 
03:55	61.2	61.2	61.2	86	57.0	0	1	292	0.00	29.825 
04:00	61.0	61.0	61.0	87	57.1	0	1	292	0.00	29.828 
04:05	60.9	60.9	60.9	87	57.0	0	3	292	0.00	29.828 
04:10	60.9	60.9	60.9	87	57.0	0	1	292	0.00	29.828 
04:15	60.7	60.7	60.7	87	56.8	0	2	292	0.00	29.831 
04:20	60.5	60.5	60.5	86	56.3	0	2	292	0.00	29.831 
04:25	60.2	60.2	60.2	86	56.0	0	1	292	0.00	29.831 
04:30	59.9	59.9	59.9	86	55.7	0	2	292	0.00	29.829 
04:35	59.8	59.8	59.8	86	55.6	0	1	292	0.00	29.829 
04:40	59.6	59.6	59.6	86	55.4	0	1	292	0.00	29.829 
04:45	59.3	59.3	59.3	86	55.1	0	1	292	0.00	29.827 
04:50	59.2	59.2	59.2	86	55.0	0	1	292	0.00	29.827 
04:55	59.0	59.0	59.0	86	54.8	0	1	292	0.00	29.827 
05:00	59.0	59.0	59.0	86	54.8	0	1	292	0.00	29.830 
05:05	58.9	58.9	58.9	87	55.0	0	1	292	0.00	29.830 
05:10	58.9	58.9	58.9	87	55.0	0	1	292	0.00	29.830 
05:15	58.9	58.9	58.9	87	55.0	0	3	292	0.00	29.824 
05:20	58.9	58.9	58.9	86	54.7	0	1	292	0.00	29.824 
05:25	58.7	58.7	58.7	86	54.5	0	1	292	0.00	29.824 
05:30	58.6	58.6	58.6	86	54.4	0	1	292	0.00	29.828 
05:35	58.4	58.4	58.4	87	54.5	0	1	292	0.00	29.828 
05:40	58.4	58.4	58.4	87	54.5	0	1	292	0.00	29.828 
05:45	58.3	58.3	58.3	87	54.4	0	1	292	0.00	29.833 
05:50	58.1	58.1	58.1	86	53.9	1	3	292	0.00	29.833 
05:55	57.3	57.3	57.3	78	50.5	3	4	292	0.00	29.833 
06:00	57.3	57.3	57.3	76	49.8	1	4	292	0.00	29.846 
06:05	57.2	57.2	57.2	75	49.3	1	3	292	0.00	29.846 
06:10	56.9	56.9	56.9	74	48.7	1	3	292	0.00	29.846 
06:15	56.7	56.7	56.7	73	48.1	1	3	292	0.00	29.845 
06:20	56.6	56.6	56.6	73	48.0	0	1	292	0.00	29.845 
06:25	56.5	56.5	56.5	73	47.9	0	2	292	0.00	29.845 
06:30	56.3	56.3	56.3	74	48.1	0	2	292	0.00	29.848 
06:35	56.2	56.2	56.2	74	48.0	0	2	292	0.00	29.848 
06:40	56.0	56.0	56.0	74	47.8	0	1	292	0.00	29.848 
06:45	56.0	56.0	56.0	74	47.8	0	1	292	0.00	29.848 
06:50	55.9	55.9	55.9	74	47.7	0	2	292	0.00	29.848 
06:55	55.9	55.9	55.9	74	47.7	0	2	292	0.00	29.848 
07:00	55.7	55.7	55.7	73	47.2	1	3	292	0.00	29.853 
07:05	55.6	55.6	55.6	73	47.1	1	4	270	0.00	29.853 
07:10	55.4	55.4	55.4	74	47.3	1	5	315	0.00	29.853 
07:15	55.3	55.3	55.3	75	47.5	0	3	292	0.00	29.860 
07:20	55.1	55.1	55.1	75	47.3	0	2	292	0.00	29.860 
07:25	55.0	55.0	55.0	75	47.2	0	1	292	0.00	29.860 
07:30	54.7	54.7	54.7	76	47.3	0	1	292	0.00	29.862 
07:35	54.4	54.4	54.4	76	47.0	0	2	292	0.00	29.862 
07:40	53.9	53.9	53.9	77	46.9	0	1	292	0.00	29.862 
07:45	53.6	53.6	53.6	77	46.6	0	1	292	0.00	29.866 
07:50	53.3	53.3	53.3	78	46.6	0	3	292	0.00	29.866 
07:55	53.1	53.1	53.1	77	46.1	0	2	292	0.00	29.866 
08:00	52.8	52.8	52.8	78	46.1	0	1	292	0.00	29.866 
08:05	52.5	52.5	52.5	78	45.8	0	3	292	0.00	29.866 
08:10	52.3	52.3	52.3	79	46.0	0	1	292	0.00	29.866 
08:15	52.0	52.0	52.0	79	45.7	0	1	292	0.00	29.879 
08:20	51.7	51.7	51.7	80	45.7	0	1	292	0.00	29.879 
08:25	51.4	51.4	51.4	80	45.4	0	2	292	0.00	29.879 
08:30	51.3	51.3	51.3	81	45.7	0	1	292	0.00	29.883 
08:35	51.1	51.1	51.1	81	45.5	0	1	292	0.00	29.883 
08:40	51.0	51.0	51.0	82	45.7	0	1	292	0.00	29.883 
08:45	50.8	50.8	50.8	83	45.8	0	1	292	0.00	29.884 
08:50	50.8	50.8	50.8	83	45.8	0	1	292	0.00	29.884 
08:55	50.8	50.8	50.8	84	46.1	0	1	292	0.00	29.884 
09:00	50.8	50.8	50.8	84	46.1	0	1	292	0.00	29.882 
09:05	50.8	50.8	50.8	84	46.1	0	1	292	0.00	29.882 
09:10	51.0	51.0	51.0	84	46.3	0	2	292	0.00	29.882 
09:15	51.0	51.0	51.0	82	45.7	0	2	292	0.00	29.878 
09:20	51.3	51.3	51.3	81	45.7	0	1	292	0.00	29.878 
09:25	51.4	51.4	51.4	79	45.1	0	1	292	0.00	29.878 
09:30	51.4	51.4	51.4	79	45.1	0	2	292	0.00	29.881 
09:35	51.6	51.6	51.6	78	45.0	1	4	292	0.00	29.881 
09:40	51.7	51.7	51.7	77	44.7	0	2	292	0.00	29.881 
09:45	51.9	51.9	51.9	77	44.9	1	3	270	0.00	29.881 
09:50	52.0	52.0	52.0	76	44.7	1	4	270	0.00	29.881 
09:55	51.9	51.9	51.9	74	43.9	1	3	270	0.00	29.881 
10:00	51.7	51.7	51.7	74	43.7	2	5	270	0.00	29.889 
10:05	51.9	51.9	51.9	75	44.2	1	3	270	0.00	29.889 
10:10	52.2	52.2	52.2	74	44.2	1	5	270	0.00	29.889 
10:15	52.3	52.3	52.3	72	43.5	2	5	270	0.00	29.888 
10:20	52.3	52.3	52.3	71	43.2	1	4	270	0.00	29.888 
10:25	52.3	52.3	52.3	70	42.8	2	6	270	0.00	29.888 
10:30	52.5	52.5	52.5	71	43.4	1	4	248	0.00	29.889 
10:35	52.6	52.6	52.6	71	43.5	1	4	270	0.00	29.889 
10:40	52.8	52.8	52.8	71	43.7	1	4	270	0.00	29.889 
10:45	52.9	52.9	52.9	70	43.4	2	4	292	0.00	29.888 
10:50	53.2	53.2	53.2	70	43.7	2	5	270	0.00	29.888 
10:55	52.9	52.9	52.9	70	43.4	3	6	315	0.00	29.888 
11:00	52.9	52.9	52.9	70	43.4	3	6	292	0.00	29.887 
11:05	53.2	53.2	53.2	69	43.3	2	6	292	0.00	29.887 
11:10	53.5	53.5	53.5	70	44.0	3	9	292	0.00	29.887 
11:15	53.8	53.8	53.8	69	43.9	2	4	270	0.00	29.884 
11:20	54.1	54.1	54.1	67	43.4	2	4	270	0.00	29.884 
11:25	54.1	54.1	54.1	67	43.4	3	5	270	0.00	29.884 
11:30	53.9	53.9	53.9	68	43.6	2	6	315	0.00	29.886 
11:35	54.5	54.5	54.5	67	43.8	2	5	270	0.00	29.886 
11:40	54.4	54.4	54.4	66	43.3	3	6	270	0.00	29.886 
11:45	54.1	54.1	54.1	67	43.4	2	6	270	0.00	29.892 
11:50	54.4	54.4	54.4	67	43.7	2	6	270	0.00	29.892 
11:55	54.7	54.7	54.7	66	43.6	2	5	270	0.00	29.892 
12:00	55.1	55.1	55.1	66	43.9	2	5	270	0.00	29.894 
12:05	55.3	55.3	55.3	65	43.7	4	7	270	0.00	29.894 
12:10	55.1	55.1	55.1	65	43.5	4	8	270	0.00	29.894 
12:15	55.0	55.0	55.0	65	43.5	2	5	270	0.00	29.896 
12:20	55.0	55.0	55.0	65	43.5	3	6	270	0.00	29.896 
12:25	55.4	55.4	55.4	64	43.4	2	5	292	0.00	29.896 
12:30	56.0	56.0	56.0	63	43.6	2	5	248	0.00	29.894 
12:35	56.2	56.2	56.2	63	43.8	2	5	270	0.00	29.894 
12:40	56.3	56.3	56.3	63	43.9	1	4	270	0.00	29.894 
12:45	56.5	56.5	56.5	62	43.6	3	7	270	0.00	29.887 
12:50	56.5	56.5	56.5	63	44.1	2	6	292	0.00	29.887 
12:55	56.6	56.6	56.6	60	42.9	2	5	270	0.00	29.887 
13:00	56.5	56.5	56.5	62	43.6	2	8	270	0.00	29.884 
13:05	56.5	56.5	56.5	63	44.1	2	7	292	0.00	29.884 
13:10	56.3	56.3	56.3	62	43.4	3	5	270	0.00	29.884 
13:15	56.3	56.3	56.3	61	43.0	3	6	270	0.00	29.883 
13:20	56.3	56.3	56.3	61	43.0	2	4	270	0.00	29.883 
13:25	56.6	56.6	56.6	61	43.3	1	4	270	0.00	29.883 
13:30	56.7	56.7	56.7	60	43.0	2	6	292	0.00	29.880 
13:35	56.6	56.6	56.6	61	43.3	3	5	292	0.00	29.880 
13:40	56.6	56.6	56.6	62	43.7	2	6	270	0.00	29.880 
13:45	56.9	56.9	56.9	61	43.6	2	6	270	0.00	29.883 
13:50	56.9	56.9	56.9	60	43.2	2	5	248	0.00	29.883 
13:55	57.0	57.0	57.0	60	43.3	3	6	270	0.00	29.883 
14:00	56.7	56.7	56.7	60	43.0	4	7	270	0.00	29.879 
14:05	56.9	56.9	56.9	58	42.3	3	5	292	0.00	29.879 
14:10	57.0	57.0	57.0	57	41.9	2	4	270	0.00	29.879 
14:15	57.2	57.2	57.2	58	42.6	2	6	292	0.00	29.877 
14:20	57.2	57.2	57.2	59	43.0	3	7	270	0.00	29.877 
14:25	57.2	57.2	57.2	59	43.0	3	6	270	0.00	29.877 
14:30	57.3	57.3	57.3	58	42.6	3	6	292	0.00	29.879 
14:35	56.9	56.9	56.9	58	42.3	4	6	270	0.00	29.879 
14:40	56.7	56.7	56.7	58	42.1	3	9	292	0.00	29.879 
14:45	56.9	56.9	56.9	58	42.3	3	6	315	0.00	29.878 
14:50	57.3	57.3	57.3	58	42.6	3	7	270	0.00	29.878 
14:55	57.5	57.5	57.5	58	42.8	3	7	292	0.00	29.878 
15:00	57.2	57.2	57.2	58	42.6	3	6	270	0.00	29.875 
15:05	57.3	57.3	57.3	58	42.6	2	5	270	0.00	29.875 
15:10	57.5	57.5	57.5	58	42.8	2	6	270	0.00	29.875 
15:15	57.8	57.8	57.8	59	43.6	1	4	270	0.00	29.875 
15:20	58.3	58.3	58.3	57	43.1	1	5	270	0.00	29.875 
15:25	58.1	58.1	58.1	57	42.9	2	6	270	0.00	29.875 
15:30	57.8	57.8	57.8	57	42.7	3	6	270	0.00	29.875 
15:35	57.6	57.6	57.6	57	42.5	2	5	270	0.00	29.875 
15:40	57.5	57.5	57.5	58	42.8	2	5	270	0.00	29.875 
15:45	57.8	57.8	57.8	58	43.1	1	6	270	0.00	29.877 
15:50	58.3	58.3	58.3	56	42.7	2	6	248	0.00	29.877 
15:55	58.1	58.1	58.1	56	42.5	3	6	270	0.00	29.877 
16:00	57.6	57.6	57.6	56	42.0	3	6	270	0.00	29.881 
16:05	57.5	57.5	57.5	57	42.4	2	4	292	0.00	29.881 
16:10	57.5	57.5	57.5	59	43.3	1	3	292	0.00	29.881 
16:15	57.8	57.8	57.8	58	43.1	1	4	270	0.00	29.882 
16:20	57.5	57.5	57.5	57	42.4	2	5	270	0.00	29.882 
16:25	57.2	57.2	57.2	58	42.6	2	4	270	0.00	29.882 
16:30	56.9	56.9	56.9	58	42.3	3	5	270	0.00	29.883 
16:35	56.7	56.7	56.7	59	42.5	2	5	292	0.00	29.883 
16:40	56.7	56.7	56.7	60	43.0	2	5	270	0.00	29.883 
16:45	56.9	56.9	56.9	60	43.2	1	6	292	0.00	29.884 
16:50	56.6	56.6	56.6	60	42.9	3	6	270	0.00	29.884 
16:55	56.3	56.3	56.3	61	43.0	2	5	270	0.00	29.884 
17:00	55.9	55.9	55.9	61	42.6	3	7	270	0.00	29.888 
17:05	55.7	55.7	55.7	62	42.9	3	6	270	0.00	29.888 
17:10	55.7	55.7	55.7	62	42.9	2	6	292	0.00	29.888 
17:15	55.4	55.4	55.4	62	42.6	2	7	270	0.00	29.890 
17:20	55.1	55.1	55.1	63	42.7	2	6	270	0.00	29.890 
17:25	54.7	54.7	54.7	64	42.8	2	5	292	0.00	29.890 
17:30	54.4	54.4	54.4	65	42.9	3	6	270	0.00	29.896 
17:35	54.2	54.2	54.2	65	42.7	2	5	270	0.00	29.896 
17:40	53.9	53.9	53.9	65	42.4	1	4	270	0.00	29.896 
17:45	53.6	53.6	53.6	66	42.5	1	5	270	0.00	29.902 
17:50	53.3	53.3	53.3	67	42.6	1	4	270	0.00	29.902 
17:55	53.2	53.2	53.2	67	42.5	1	3	270	0.00	29.902 
18:00	53.1	53.1	53.1	67	42.4	1	4	270	0.00	29.906 
18:05	52.9	52.9	52.9	68	42.6	0	3	270	0.00	29.906 
18:10	52.8	52.8	52.8	68	42.5	0	2	270	0.00	29.906 
18:15	52.8	52.8	52.8	69	42.9	0	2	270	0.00	29.907 
18:20	52.6	52.6	52.6	69	42.7	0	3	270	0.00	29.907 
18:25	52.5	52.5	52.5	69	42.6	0	2	270	0.00	29.907 
18:30	52.5	52.5	52.5	69	42.6	0	3	270	0.00	29.910 
18:35	52.3	52.3	52.3	69	42.4	1	3	292	0.00	29.910 
18:40	52.2	52.2	52.2	69	42.3	1	3	292	0.00	29.910 
18:45	52.2	52.2	52.2	69	42.3	0	3	292	0.00	29.913 
18:50	52.0	52.0	52.0	70	42.5	0	2	292	0.00	29.913 
18:55	52.0	52.0	52.0	69	42.1	0	2	292	0.00	29.913 
19:00	52.0	52.0	52.0	70	42.5	0	2	292	0.00	29.912 
19:05	51.9	51.9	51.9	70	42.4	0	1	292	0.00	29.912 
19:10	51.9	51.9	51.9	70	42.4	0	1	292	0.00	29.912 
19:15	51.7	51.7	51.7	71	42.6	0	1	292	0.00	29.923 
19:20	51.7	51.7	51.7	71	42.6	0	2	292	0.00	29.923 
19:25	51.6	51.6	51.6	71	42.5	0	1	292	0.00	29.923 
19:30	51.4	51.4	51.4	72	42.7	0	1	292	0.00	29.923 
19:35	51.3	51.3	51.3	72	42.6	0	1	292	0.00	29.923 
19:40	51.0	51.0	51.0	73	42.7	0	1	292	0.00	29.923 
19:45	50.8	50.8	50.8	73	42.5	0	0	---	0.00	29.926 
19:50	50.5	50.5	50.5	74	42.5	0	0	---	0.00	29.926 
19:55	50.2	50.2	50.2	74	42.2	0	1	292	0.00	29.926 
20:00	50.1	50.1	50.1	75	42.5	0	1	292	0.00	29.932 
20:05	49.9	49.9	49.9	75	42.3	0	0	---	0.00	29.932 
20:10	49.8	49.8	49.8	75	42.2	0	0	---	0.00	29.932 
20:15	49.5	49.5	49.5	76	42.3	0	0	---	0.00	29.933 
20:20	49.2	49.2	49.2	77	42.3	0	0	---	0.00	29.933 
20:25	49.1	49.1	49.1	77	42.2	0	0	---	0.00	29.933 
20:30	48.9	48.9	48.9	78	42.3	0	0	---	0.00	29.939 
20:35	48.9	48.9	48.9	78	42.3	0	0	---	0.00	29.939 
20:40	48.9	48.9	48.9	79	42.7	0	0	---	0.00	29.939 
20:45	48.8	48.8	48.8	79	42.6	0	0	---	0.00	29.942 
20:50	48.8	48.8	48.8	79	42.6	0	0	---	0.00	29.942 
20:55	48.8	48.8	48.8	79	42.6	0	0	---	0.00	29.942 
21:00	48.9	48.9	48.9	79	42.7	0	0	---	0.00	29.944 
21:05	48.9	48.9	48.9	79	42.7	0	1	292	0.00	29.944 
21:10	49.1	49.1	49.1	79	42.9	0	0	---	0.00	29.944 
21:15	49.2	49.2	49.2	79	43.0	0	0	---	0.00	29.947 
21:20	49.4	49.4	49.4	78	42.8	0	0	---	0.00	29.947 
21:25	49.4	49.4	49.4	78	42.8	0	1	292	0.00	29.947 
21:30	49.5	49.5	49.5	78	42.9	0	0	---	0.00	29.950 
21:35	49.5	49.5	49.5	78	42.9	0	0	---	0.00	29.950 
21:40	49.5	49.5	49.5	78	42.9	0	0	---	0.00	29.950 
21:45	49.5	49.5	49.5	78	42.9	0	0	---	0.00	29.952 
21:50	49.5	49.5	49.5	78	42.9	0	0	---	0.00	29.952 
21:55	49.5	49.5	49.5	78	42.9	0	0	---	0.00	29.952 
22:00	49.5	49.5	49.5	78	42.9	0	0	---	0.00	29.953 
22:05	49.5	49.5	49.5	78	42.9	0	0	---	0.00	29.953 
22:10	49.5	49.5	49.5	78	42.9	0	0	---	0.00	29.953 
22:15	49.5	49.5	49.5	78	42.9	0	0	---	0.00	29.956 
22:20	49.6	49.6	49.6	78	43.0	0	0	---	0.00	29.956 
22:25	49.6	49.6	49.6	78	43.0	0	0	---	0.00	29.956 
22:30	49.6	49.6	49.6	78	43.0	0	0	---	0.00	29.954 
22:35	49.6	49.6	49.6	78	43.0	0	0	---	0.00	29.954 
22:40	49.6	49.6	49.6	78	43.0	0	1	292	0.00	29.954 
22:45	49.6	49.6	49.6	78	43.0	0	0	---	0.00	29.951 
22:50	49.8	49.8	49.8	78	43.2	0	0	---	0.00	29.951 
22:55	49.8	49.8	49.8	78	43.2	0	0	---	0.00	29.951 
23:00	49.9	49.9	49.9	78	43.3	0	1	292	0.00	29.952 
23:05	49.9	49.9	49.9	78	43.3	0	0	---	0.00	29.952 
23:10	50.1	50.1	50.1	78	43.5	0	1	292	0.00	29.952 
23:15	50.1	50.1	50.1	77	43.2	0	1	292	0.00	29.947 
23:20	50.1	50.1	50.1	77	43.2	0	1	292	0.00	29.947 
23:25	50.1	50.1	50.1	77	43.2	0	1	292	0.00	29.947 
23:30	50.1	50.1	50.1	78	43.5	0	0	---	0.00	29.940 
23:35	50.1	50.1	50.1	78	43.5	0	1	292	0.00	29.940 
23:40	49.9	49.9	49.9	78	43.3	0	1	292	0.00	29.940 
23:45	49.9	49.9	49.9	78	43.3	0	0	---	0.00	29.938 
23:50	49.8	49.8	49.8	78	43.2	0	1	292	0.00	29.938 
23:55	49.8	49.8	49.8	79	43.6	0	1	292	0.00	29.938 

CoCoRaHS
IN-AL-39
A2 Web Hosting
Creative Commons License
GoDaddy
search engine by freefind advanced

loaded 2018-11-17 12:00:00 • last modified 2010-11-18 10:43:29
Privacy PolicyDisclaimer
• wx.awcolley.com is powered by PmWiki v.2002016 •
• all content (unless otherwise noted) © 2018 A W Colley